MA63 weather

Sherman-Private Airport
Pembroke, Massachusetts, United States

Public forecast

Using degrees Fahrenheit for public forecast. Weather courtesy of forecast.io.

Closest aviation weather report (METAR) to Sherman-Private Airport

Closest report is Marshfield Municipal George Harlow Field, 5.8 nm (10.7 km) ENE. Retrieved 2020/08/06 12:15 UTC (9 minutes ago):

KGHG 061215Z AUTO 00000KT 10SM CLR 24/14 A3011 RMK AO2

Closest aviation forecast (TAF) to Sherman-Private Airport

Closest forecast is General Edward Lawrence Logan International Airport, 19.7 nm (36.5 km) NNW. Retrieved 2020/08/06 12:22 UTC (2 minutes ago):

TAF KBOS 061120Z 0612/0718 27004KT P6SM FEW070 SCT250 FM061600 14009KT P6SM FEW050 SCT150 FM070000 08003KT P6SM SCT070 FM071200 05005KT P6SM BKN050 FM071600 08007KT P6SM VCSH SCT030 OVC050